Terminal Aerodrome Forecast
Issued by NWS

Home | Current Version | Previous Version | Text Only | Print | Product List | Glossary On
Versions: 1 2 3 4 5 6 7 8 9 10 11 12 13 14 15 16 17 18 19 20 21 22 23 24 25 26 27 28 29 30 31 32 33 34
000
FTUS45 KREV 240539
TAFTRK
TAF
KTRK 240539Z 2406/2506 23005KT P6SM SCT090 BKN150
     FM241000 00000KT P6SM BCFG FEW001 SCT100
     FM241600 23005KT P6SM SCT110 BKN180
     FM250100 VRB03KT P6SM SCT120 BKN180=

USA.gov is the U.S. government's official web portal to all federal, state and local government web resources and services.